Hawks, Michigan
Current Conditions -  °F | °C
As of 1:54 AM on Thursday 27 Nov 2014 (Local Time) from KPZQ Reporting Station
Light Snow Light Snow  
Wind Chill: 22°   Ceiling: 2500
Heat Index: 27°   Visibility: 10mi
Dew Point: 25°   Wind: 5mph
Humidity: 92%   Direction: 270°W
Pressure: 30.12"   Gusts: NA
Location:  45.3°N, 83.89°W
Report Text: KPZQ 270654Z AUTO 27004KT 10SM -SN SCT016 BKN025 OVC035 M03/M04 A3012 RMK AO2 T10281039
Loading
Personal Weather Stations






























Interactive Weather Map New forecast layout! Learn more

10-Day Weather Forecast

Advertisements
Track Severe Weather on mobile